createdAt,value
2023-02-09T00:01:49.070Z,61.60
2023-02-09T00:06:52.452Z,61.36
2023-02-09T00:11:56.316Z,61.88
2023-02-09T00:17:02.065Z,62.29
2023-02-09T00:22:05.301Z,63.14
2023-02-09T00:27:08.525Z,62.88
2023-02-09T00:32:11.729Z,63.46
2023-02-09T00:37:16.267Z,63.08
2023-02-09T00:42:21.987Z,63.38
2023-02-09T00:47:25.968Z,64.25
2023-02-09T00:52:29.021Z,64.40
2023-02-09T00:57:32.118Z,63.56
2023-02-09T01:02:35.723Z,63.95
2023-02-09T01:07:38.850Z,64.41
2023-02-09T01:12:42.736Z,63.76
2023-02-09T01:17:46.038Z,63.91
2023-02-09T01:22:49.148Z,63.36
2023-02-09T01:27:52.257Z,62.88
2023-02-09T01:32:55.411Z,62.76
2023-02-09T01:37:58.504Z,62.68
2023-02-09T01:43:01.757Z,62.64
2023-02-09T01:48:05.124Z,61.92
2023-02-09T01:53:08.825Z,62.26
2023-02-09T01:58:15.664Z,61.78
2023-02-09T02:03:25.389Z,61.86
2023-02-09T02:08:37.295Z,61.71
2023-02-09T02:13:40.440Z,61.15
2023-02-09T02:19:12.469Z,61.28
2023-02-09T02:25:03.346Z,61.57
2023-02-09T02:30:24.878Z,60.86
2023-02-09T02:35:44.532Z,61.14
2023-02-09T02:41:06.056Z,60.56
2023-02-09T02:46:36.015Z,60.85
2023-02-09T02:51:49.539Z,60.72
2023-02-09T02:56:59.486Z,60.94
2023-02-09T03:02:08.740Z,59.85
2023-02-09T03:07:11.877Z,60.45
2023-02-09T03:12:38.710Z,60.53
2023-02-09T03:17:47.384Z,59.94
2023-02-09T03:22:57.579Z,60.08
2023-02-09T03:28:09.608Z,60.16
2023-02-09T03:33:25.133Z,59.90
2023-02-09T03:38:28.644Z,60.43
2023-02-09T03:43:31.852Z,60.27
2023-02-09T03:48:34.915Z,60.21
2023-02-09T03:53:38.140Z,60.36
2023-02-09T03:58:41.236Z,60.34
2023-02-09T04:03:44.269Z,59.88
2023-02-09T04:08:49.137Z,59.86
2023-02-09T04:13:52.516Z,59.68
2023-02-09T04:18:55.644Z,59.72
2023-02-09T04:23:58.778Z,59.38
2023-02-09T04:29:02.532Z,59.35
2023-02-09T04:34:05.362Z,60.05
2023-02-09T04:39:08.566Z,59.93
2023-02-09T04:44:16.262Z,59.49
2023-02-09T04:49:19.494Z,59.22
2023-02-09T04:54:22.520Z,59.21
2023-02-09T04:59:25.677Z,59.27
2023-02-09T05:04:28.935Z,59.01
2023-02-09T05:09:32.119Z,58.86
2023-02-09T05:14:35.168Z,58.78
2023-02-09T05:19:38.250Z,59.07
2023-02-09T05:24:41.341Z,58.54
2023-02-09T05:29:44.665Z,58.34
2023-02-09T05:34:48.334Z,58.30
2023-02-09T05:39:51.652Z,58.21
2023-02-09T05:44:54.762Z,58.07
2023-02-09T05:49:57.847Z,58.16
2023-02-09T05:55:01.025Z,58.00
2023-02-09T06:00:06.906Z,57.75
2023-02-09T06:05:14.834Z,57.78
2023-02-09T06:10:19.077Z,58.10
2023-02-09T06:15:24.864Z,57.65
2023-02-09T06:20:28.007Z,57.57
2023-02-09T06:25:31.863Z,57.16
2023-02-09T06:30:35.110Z,57.38
2023-02-09T06:35:38.294Z,56.35
2023-02-09T06:40:41.490Z,56.48
2023-02-09T06:45:44.690Z,56.04
2023-02-09T06:50:47.956Z,54.88
2023-02-09T06:55:51.778Z,55.80
2023-02-09T07:00:54.942Z,55.57
2023-02-09T07:06:06.855Z,56.31
2023-02-09T07:11:13.838Z,56.57
2023-02-09T07:16:17.062Z,56.86
2023-02-09T07:21:20.214Z,56.73
2023-02-09T07:26:23.243Z,56.14
2023-02-09T07:31:26.472Z,56.46
2023-02-09T07:36:29.459Z,56.56
2023-02-09T07:41:33.757Z,56.24
2023-02-09T07:46:36.874Z,56.07
2023-02-09T07:51:40.097Z,56.04
2023-02-09T07:56:43.320Z,55.44
2023-02-09T08:01:46.438Z,56.22
2023-02-09T08:06:50.191Z,56.02
2023-02-09T08:12:04.130Z,55.90
2023-02-09T08:17:11.872Z,55.34
2023-02-09T08:22:15.096Z,55.40
2023-02-09T08:27:18.289Z,54.93
2023-02-09T08:32:21.781Z,55.22
2023-02-09T08:37:25.036Z,54.65
2023-02-09T08:42:28.684Z,54.55
2023-02-09T08:47:32.242Z,55.52
2023-02-09T08:52:35.498Z,55.08
2023-02-09T08:57:44.485Z,54.77
2023-02-09T09:02:47.768Z,54.85
2023-02-09T09:07:50.911Z,55.32
2023-02-09T09:12:54.023Z,54.75
2023-02-09T09:17:57.250Z,55.06
2023-02-09T09:23:00.410Z,55.23
2023-02-09T09:28:03.548Z,54.38
2023-02-09T09:33:06.947Z,54.58
2023-02-09T09:38:09.872Z,54.72
2023-02-09T09:43:33.277Z,54.82
2023-02-09T09:48:50.646Z,55.04
2023-02-09T09:53:55.880Z,54.33
2023-02-09T09:59:01.346Z,54.58
2023-02-09T10:04:13.517Z,54.11
2023-02-09T10:09:39.046Z,53.63
2023-02-09T10:14:42.767Z,53.98
2023-02-09T10:20:00.885Z,53.24
2023-02-09T10:25:53.351Z,53.49
2023-02-09T10:31:00.465Z,53.00
2023-02-09T10:36:04.066Z,52.72
2023-02-09T10:41:10.617Z,52.61
2023-02-09T10:46:19.543Z,52.78
2023-02-09T10:51:24.860Z,52.92
2023-02-09T10:56:35.552Z,53.54
2023-02-09T11:01:44.216Z,53.49
2023-02-09T11:06:56.502Z,53.80
2023-02-09T11:12:00.501Z,53.84
2023-02-09T11:17:33.249Z,53.69
2023-02-09T11:22:36.077Z,54.21
2023-02-09T11:27:57.627Z,54.57
2023-02-09T11:33:26.945Z,54.17
2023-02-09T11:38:44.579Z,54.77
2023-02-09T11:43:51.673Z,55.03
2023-02-09T11:49:06.900Z,54.28
2023-02-09T11:54:16.182Z,55.00
2023-02-09T11:59:43.690Z,55.11
2023-02-09T12:04:55.279Z,54.80
2023-02-09T12:10:20.365Z,54.89
2023-02-09T12:15:37.539Z,54.66
2023-02-09T12:20:40.545Z,54.95
2023-02-09T12:25:55.222Z,54.80
2023-02-09T12:31:00.325Z,54.47
2023-02-09T12:36:05.704Z,54.17
2023-02-09T12:41:09.871Z,54.46
2023-02-09T12:46:14.728Z,54.53
2023-02-09T12:51:45.966Z,54.42
2023-02-09T12:56:49.150Z,54.42
2023-02-09T13:02:07.626Z,53.81
2023-02-09T13:07:41.915Z,54.16
2023-02-09T13:13:14.814Z,54.04
2023-02-09T13:18:44.106Z,54.37
2023-02-09T13:23:55.364Z,53.84
2023-02-09T13:29:22.532Z,54.92
2023-02-09T13:34:50.469Z,54.65
2023-02-09T13:40:02.355Z,54.57
2023-02-09T13:45:17.693Z,54.31
2023-02-09T13:50:26.263Z,54.48
2023-02-09T13:55:30.084Z,55.03
2023-02-09T14:00:54.700Z,54.58
2023-02-09T14:06:11.287Z,55.52
2023-02-09T14:11:41.138Z,55.39
2023-02-09T14:16:53.580Z,54.90
2023-02-09T14:21:57.618Z,55.34
2023-02-09T14:27:03.100Z,54.92
2023-02-09T14:32:32.174Z,55.71
2023-02-09T14:37:37.306Z,56.01
2023-02-09T14:43:06.976Z,55.43
2023-02-09T14:48:21.717Z,55.89
2023-02-09T14:53:28.273Z,55.87
2023-02-09T14:58:33.006Z,56.83
2023-02-09T15:03:36.211Z,56.40
2023-02-09T15:08:39.760Z,56.66
2023-02-09T15:13:42.900Z,56.17
2023-02-09T15:18:46.026Z,56.63
2023-02-09T15:23:49.118Z,56.58
2023-02-09T15:28:53.501Z,56.66
2023-02-09T15:33:56.619Z,57.24
2023-02-09T15:38:59.970Z,56.92
2023-02-09T15:44:15.904Z,57.24
2023-02-09T15:49:19.081Z,57.35
2023-02-09T15:54:30.187Z,57.26
2023-02-09T15:59:33.346Z,57.81
2023-02-09T16:04:36.499Z,57.51
2023-02-09T16:09:42.311Z,57.77
2023-02-09T16:14:45.535Z,57.43
2023-02-09T16:19:48.599Z,57.94
2023-02-09T16:24:52.142Z,57.66
2023-02-09T16:29:57.108Z,57.95
2023-02-09T16:35:14.590Z,57.82
2023-02-09T16:40:22.692Z,57.65
2023-02-09T16:45:29.246Z,57.39
2023-02-09T16:50:35.376Z,57.94
2023-02-09T16:55:38.776Z,57.48
2023-02-09T17:00:45.344Z,57.46
2023-02-09T17:05:58.189Z,57.18
2023-02-09T17:11:03.120Z,57.68
2023-02-09T17:16:07.353Z,57.39
2023-02-09T17:21:21.340Z,57.08
2023-02-09T17:26:24.907Z,56.62
2023-02-09T17:31:38.220Z,56.89
2023-02-09T17:36:47.192Z,56.76
2023-02-09T17:41:50.450Z,56.52
2023-02-09T17:46:54.670Z,56.49
2023-02-09T17:51:57.851Z,56.78
2023-02-09T17:57:01.136Z,56.70
2023-02-09T18:02:11.098Z,57.48
2023-02-09T18:07:14.294Z,57.31
2023-02-09T18:12:19.510Z,57.59
2023-02-09T18:17:22.944Z,57.49
2023-02-09T18:22:26.143Z,57.49
2023-02-09T18:27:29.296Z,57.75
2023-02-09T18:32:32.407Z,57.03
2023-02-09T18:37:35.703Z,57.75
2023-02-09T18:42:38.709Z,57.35
2023-02-09T18:47:41.999Z,57.85
2023-02-09T18:52:49.412Z,57.96
2023-02-09T18:57:53.044Z,57.97
2023-02-09T19:02:57.303Z,57.86
2023-02-09T19:08:00.985Z,57.30
2023-02-09T19:13:04.797Z,57.37
2023-02-09T19:18:07.813Z,57.37
2023-02-09T19:23:10.957Z,57.43
2023-02-09T19:28:14.218Z,57.85
2023-02-09T19:33:17.259Z,57.78
2023-02-09T19:38:20.373Z,57.20
2023-02-09T19:43:23.814Z,57.26
2023-02-09T19:48:27.801Z,56.83
2023-02-09T19:53:30.995Z,56.75
2023-02-09T19:58:37.301Z,56.45
2023-02-09T20:03:40.743Z,56.57
2023-02-09T20:08:44.035Z,56.51
2023-02-09T20:13:53.294Z,56.16
2023-02-09T20:18:56.837Z,56.05
2023-02-09T20:24:00.360Z,55.74
2023-02-09T20:29:04.726Z,55.63
2023-02-09T20:34:11.796Z,54.96
2023-02-09T20:39:16.346Z,55.44
2023-02-09T20:44:19.558Z,55.25
2023-02-09T20:49:32.465Z,55.17
2023-02-09T20:54:36.199Z,55.00
2023-02-09T20:59:39.617Z,55.02
2023-02-09T21:04:42.461Z,55.31
2023-02-09T21:09:45.560Z,55.29
2023-02-09T21:14:48.893Z,54.77
2023-02-09T21:19:52.038Z,55.17
2023-02-09T21:24:55.500Z,55.27
2023-02-09T21:29:59.607Z,54.99
2023-02-09T21:35:02.767Z,54.46
2023-02-09T21:40:07.108Z,55.25
2023-02-09T21:45:10.599Z,54.99
2023-02-09T21:50:14.070Z,54.89
2023-02-09T21:55:17.329Z,54.92
2023-02-09T22:00:20.625Z,54.67
2023-02-09T22:05:24.376Z,54.63
2023-02-09T22:10:27.424Z,55.19
2023-02-09T22:15:30.370Z,55.03
2023-02-09T22:20:33.595Z,54.54
2023-02-09T22:25:37.198Z,54.69
2023-02-09T22:30:41.801Z,55.24
2023-02-09T22:35:45.096Z,55.00
2023-02-09T22:40:48.156Z,55.47
2023-02-09T22:46:00.415Z,55.15
2023-02-09T22:51:03.633Z,55.05
2023-02-09T22:56:06.802Z,54.79
2023-02-09T23:01:11.004Z,54.76
2023-02-09T23:06:19.992Z,54.33
2023-02-09T23:11:23.912Z,54.94
2023-02-09T23:16:29.017Z,54.18
2023-02-09T23:21:35.007Z,54.72
2023-02-09T23:26:38.911Z,54.53
2023-02-09T23:31:43.584Z,54.85
2023-02-09T23:36:47.276Z,54.97
2023-02-09T23:41:50.553Z,54.56
2023-02-09T23:46:53.747Z,54.81
2023-02-09T23:51:56.929Z,55.04
2023-02-09T23:57:00.418Z,54.99
